Time;durP1;ratioP1;P1;durP2;ratioP2;P2;SDS_P1;SDS_P2;PMS_P1;PMS_P2;Temp;Humidity;BMP_temperature;BMP_pressure;BME280_temperature;BME280_humidity;BME280_pressure;Samples;Min_cycle;Max_cycle;Signal;HPM_P1;HPM_P2
2022/08/11 00:00:05;;;;;;;4.10;2.03;;;19.90;99.90;;;;;;5013322;28;20407;-73
2022/08/11 00:02:34;;;;;;;2.83;2.30;;;19.90;99.90;;;;;;5013355;28;20467;-73
2022/08/11 00:05:20;;;;;;;10.50;2.23;;;19.80;99.90;;;;;;5013113;28;20750;-72
2022/08/11 00:07:54;;;;;;;3.50;2.70;;;19.80;99.90;;;;;;5013397;28;20478;-72
2022/08/11 00:10:23;;;;;;;3.87;2.43;;;19.80;99.90;;;;;;5013207;28;20473;-72
2022/08/11 00:12:57;;;;;;;2.97;2.40;;;19.80;99.90;;;;;;5013054;28;20966;-73
2022/08/11 00:15:25;;;;;;;4.23;2.20;;;19.70;99.90;;;;;;5012773;28;20490;-73
2022/08/11 00:17:57;;;;;;;2.33;1.97;;;19.70;99.90;;;;;;5011783;28;20900;-73
2022/08/11 00:20:32;;;;;;;3.03;1.97;;;19.50;99.90;;;;;;5011817;28;20418;-73
2022/08/11 00:23:05;;;;;;;1.97;1.77;;;19.50;99.90;;;;;;5013026;28;20955;-73
2022/08/11 00:25:39;;;;;;;2.30;1.97;;;19.40;99.90;;;;;;5012714;28;20406;-73
2022/08/11 00:28:30;;;;;;;3.77;2.17;;;19.40;99.90;;;;;;5011562;28;20419;-73
2022/08/11 00:31:00;;;;;;;2.40;2.20;;;19.30;99.90;;;;;;5011566;28;20431;-73
2022/08/11 00:33:37;;;;;;;2.70;2.40;;;19.20;99.90;;;;;;5012967;28;20504;-73
2022/08/11 00:36:03;;;;;;;3.60;2.60;;;19.20;99.90;;;;;;5012434;28;20514;-73
2022/08/11 00:38:34;;;;;;;2.30;1.90;;;19.20;99.90;;;;;;5012868;28;20407;-73
2022/08/11 00:41:38;;;;;;;2.10;2.00;;;19.10;99.90;;;;;;5012359;28;20793;-73
2022/08/11 00:44:13;;;;;;;2.93;2.00;;;19.10;99.90;;;;;;5010901;28;20515;-73
2022/08/11 00:46:50;;;;;;;2.90;2.23;;;19.00;99.90;;;;;;5012619;28;20430;-73
2022/08/11 00:49:31;;;;;;;1.80;1.60;;;19.00;99.90;;;;;;5011459;28;20421;-73
2022/08/11 00:52:22;;;;;;;2.30;1.90;;;19.00;99.90;;;;;;5011112;28;20446;-73
2022/08/11 00:55:02;;;;;;;3.40;2.50;;;18.90;99.90;;;;;;5012370;28;20414;-73
2022/08/11 00:57:49;;;;;;;3.17;2.03;;;18.90;99.90;;;;;;5012405;28;20403;-73
2022/08/11 01:00:22;;;;;;;2.17;1.97;;;18.90;99.90;;;;;;5011102;28;20402;-73
2022/08/11 01:03:03;;;;;;;2.27;2.07;;;18.90;99.90;;;;;;5012236;28;20468;-73
2022/08/11 01:05:40;;;;;;;2.70;2.50;;;18.80;99.90;;;;;;5012149;28;20399;-73
2022/08/11 01:08:31;;;;;;;2.23;1.90;;;18.80;99.90;;;;;;5012346;28;20425;-72
2022/08/11 01:11:26;;;;;;;1.83;1.63;;;18.80;99.90;;;;;;5012187;28;20430;-72
2022/08/11 01:14:10;;;;;;;3.90;2.67;;;18.80;99.90;;;;;;5010913;28;20406;-72
2022/08/11 01:17:02;;;;;;;2.60;2.30;;;18.80;99.90;;;;;;5012033;28;20468;-73
2022/08/11 01:19:52;;;;;;;4.90;3.10;;;18.70;99.90;;;;;;5012261;28;20415;-73
2022/08/11 01:22:48;;;;;;;3.30;2.50;;;18.70;99.90;;;;;;5011977;28;20424;-72
2022/08/11 01:25:47;;;;;;;2.77;2.57;;;18.60;99.90;;;;;;5011892;28;20407;-73
2022/08/11 01:28:56;;;;;;;2.53;2.10;;;18.50;99.90;;;;;;5012036;28;20406;-72
2022/08/11 01:31:57;;;;;;;2.03;1.90;;;18.50;99.90;;;;;;5011919;28;20447;-73
2022/08/11 01:34:26;;;;;;;2.40;2.13;;;18.40;99.90;;;;;;5011747;28;20422;-72
2022/08/11 01:37:25;;;;;;;2.63;2.43;;;18.40;99.90;;;;;;5012083;28;20966;-71
2022/08/11 01:40:33;;;;;;;3.37;2.13;;;18.40;99.90;;;;;;5012006;28;20431;-72
2022/08/11 01:46:09;;;;;;;4.07;2.50;;;18.30;99.90;;;;;;5011664;28;20415;-73
2022/08/11 01:49:00;;;;;;;2.73;2.43;;;18.20;99.90;;;;;;5012019;28;20801;-73
2022/08/11 01:51:44;;;;;;;7.90;5.43;;;18.20;99.90;;;;;;5011790;28;20447;-73
2022/08/11 01:54:47;;;;;;;11.30;8.73;;;18.10;99.90;;;;;;5013725;28;20486;-73
2022/08/11 01:57:35;;;;;;;5.63;4.77;;;18.10;99.90;;;;;;5015529;28;20485;-73
2022/08/11 02:00:19;;;;;;;3.20;2.70;;;18.10;99.90;;;;;;5014220;28;20418;-72
2022/08/11 02:03:06;;;;;;;2.90;2.60;;;18.00;99.90;;;;;;5015073;28;20446;-72
2022/08/11 02:05:59;;;;;;;3.00;2.67;;;18.00;99.90;;;;;;5015043;28;20482;-72
2022/08/11 02:08:48;;;;;;;2.87;2.50;;;18.00;99.90;;;;;;5014671;28;20928;-73
2022/08/11 02:11:32;;;;;;;3.73;2.60;;;18.00;99.90;;;;;;5015585;28;20419;-73
2022/08/11 02:14:06;;;;;;;4.07;2.70;;;18.00;99.90;;;;;;5015333;28;20422;-74
2022/08/11 02:16:53;;;;;;;4.17;2.70;;;17.90;99.90;;;;;;5013744;28;20403;-73
2022/08/11 02:25:26;;;;;;;4.70;2.47;;;17.80;99.90;;;;;;5015001;28;21019;-72
2022/08/11 02:28:11;;;;;;;3.60;3.23;;;17.70;99.90;;;;;;5014971;28;20404;-73
2022/08/11 02:33:21;;;;;;;2.33;2.00;;;17.60;99.90;;;;;;5014807;28;20754;-73
2022/08/11 02:33:43;;;;;;;2.80;2.60;;;17.60;99.90;;;;;;5013768;28;20442;-72
2022/08/11 02:36:19;;;;;;;3.33;2.97;;;17.60;99.90;;;;;;5014526;28;20438;-72
2022/08/11 02:39:05;;;;;;;5.13;3.03;;;17.60;99.90;;;;;;5014994;28;20395;-72
2022/08/11 02:44:43;;;;;;;2.80;2.60;;;17.50;99.90;;;;;;5014381;28;20520;-72
2022/08/11 02:47:28;;;;;;;3.93;3.10;;;17.40;99.90;;;;;;5014655;28;20418;-73
2022/08/11 02:50:21;;;;;;;3.27;2.83;;;17.40;99.90;;;;;;5013358;28;20403;-73
2022/08/11 02:52:59;;;;;;;3.10;2.73;;;17.40;99.90;;;;;;5014319;28;20451;-72
2022/08/11 02:55:31;;;;;;;2.73;2.53;;;17.30;99.90;;;;;;5014415;28;20530;-72
2022/08/11 02:58:20;;;;;;;10.30;6.00;;;17.30;99.90;;;;;;5013469;28;20983;-72
2022/08/11 03:01:10;;;;;;;13.27;8.37;;;17.30;99.90;;;;;;5014408;28;20422;-72
2022/08/11 03:04:06;;;;;;;6.13;4.40;;;17.20;99.90;;;;;;5014259;28;20455;-72
2022/08/11 03:06:40;;;;;;;3.47;2.50;;;17.20;99.90;;;;;;5013615;28;20419;-73
2022/08/11 03:09:16;;;;;;;3.20;2.90;;;17.10;99.90;;;;;;5014546;28;20410;-73
2022/08/11 03:18:27;;;;;;;4.13;3.50;;;17.00;99.90;;;;;;5014399;28;20410;-74
2022/08/11 03:21:16;;;;;;;3.60;2.90;;;17.00;99.90;;;;;;5013825;28;20399;-71
2022/08/11 03:23:57;;;;;;;3.10;2.70;;;16.90;99.90;;;;;;5013843;28;20532;-72
2022/08/11 03:26:32;;;;;;;4.00;3.27;;;16.80;99.90;;;;;;5013628;28;20395;-72
2022/08/11 03:29:10;;;;;;;3.53;3.23;;;16.80;99.90;;;;;;5014054;28;20968;-72
2022/08/11 03:31:52;;;;;;;3.00;2.70;;;16.70;99.90;;;;;;5013771;28;20928;-72
2022/08/11 03:34:24;;;;;;;2.97;2.60;;;16.70;99.90;;;;;;5013775;28;20823;-73
2022/08/11 03:37:49;;;;;;;3.93;2.73;;;16.60;99.90;;;;;;5013818;28;20909;-73
2022/08/11 03:43:45;;;;;;;2.60;2.27;;;16.60;99.90;;;;;;5013849;28;20878;-73
2022/08/11 03:46:21;;;;;;;2.97;2.70;;;16.50;99.90;;;;;;5012956;28;20403;-72
2022/08/11 03:49:14;;;;;;;4.20;2.50;;;16.60;99.90;;;;;;5013477;28;20489;-72
2022/08/11 03:51:56;;;;;;;3.07;2.80;;;16.50;99.90;;;;;;5013215;28;20465;-72
2022/08/11 03:54:58;;;;;;;3.60;2.53;;;16.50;99.90;;;;;;5011870;28;20437;-73
2022/08/11 03:57:54;;;;;;;5.17;3.07;;;16.50;99.90;;;;;;5012404;28;20431;-72
2022/08/11 04:00:54;;;;;;;3.17;2.50;;;16.50;99.90;;;;;;5013337;28;20945;-73
2022/08/11 04:03:57;;;;;;;5.60;3.40;;;16.50;99.90;;;;;;5012273;28;20548;-72
2022/08/11 04:07:05;;;;;;;2.67;2.43;;;16.50;99.90;;;;;;5013002;28;20406;-73
2022/08/11 04:10:27;;;;;;;6.77;4.60;;;16.50;99.90;;;;;;5013094;28;20403;-72
2022/08/11 04:13:11;;;;;;;5.50;3.67;;;16.50;99.90;;;;;;5012868;28;20459;-73
2022/08/11 04:16:07;;;;;;;2.97;2.70;;;16.50;99.90;;;;;;5012401;28;20403;-72
2022/08/11 04:18:57;;;;;;;3.17;2.70;;;16.50;99.90;;;;;;5011732;28;20411;-72
2022/08/11 04:22:00;;;;;;;2.87;2.60;;;16.50;99.90;;;;;;5013168;28;20872;-73
2022/08/11 04:24:34;;;;;;;5.20;3.13;;;16.40;99.90;;;;;;5012501;28;20418;-73
2022/08/11 04:27:21;;;;;;;4.50;2.90;;;16.40;99.90;;;;;;5012849;28;20407;-72
2022/08/11 04:29:53;;;;;;;4.13;2.60;;;16.40;99.90;;;;;;5012855;28;20887;-73
2022/08/11 04:32:30;;;;;;;3.23;2.60;;;16.40;99.90;;;;;;5012582;28;20427;-72
2022/08/11 04:35:38;;;;;;;3.83;3.10;;;16.40;99.90;;;;;;5012468;28;20415;-71
2022/08/11 04:38:41;;;;;;;3.40;3.10;;;16.40;99.90;;;;;;5012137;28;20434;-72
2022/08/11 04:41:31;;;;;;;3.43;2.90;;;16.40;99.90;;;;;;5012944;28;21015;-72
2022/08/11 04:44:15;;;;;;;2.93;2.63;;;16.50;99.90;;;;;;5012519;28;20418;-72
2022/08/11 04:47:05;;;;;;;3.33;3.00;;;16.50;99.90;;;;;;5012541;28;20486;-72
2022/08/11 05:02:34;;;;;;;4.07;2.70;;;16.60;99.90;;;;;;5012279;28;20426;-72
2022/08/11 05:05:31;;;;;;;4.60;3.10;;;16.70;99.90;;;;;;5011977;28;20437;-73
2022/08/11 05:08:37;;;;;;;3.43;2.90;;;16.80;99.90;;;;;;5010988;28;20438;-72
2022/08/11 05:11:16;;;;;;;3.27;2.97;;;16.80;99.90;;;;;;5012189;28;20476;-71
2022/08/11 05:37:10;;;;;;;3.13;2.77;;;17.70;99.90;;;;;;5016285;28;20486;-73
2022/08/11 05:56:33;;;;;;;5.17;2.83;;;20.10;99.90;;;;;;5015202;28;20805;-73
2022/08/11 05:58:59;;;;;;;3.50;3.20;;;20.60;99.90;;;;;;5015409;28;20509;-73
2022/08/11 06:01:33;;;;;;;3.53;2.33;;;21.20;99.90;;;;;;5015389;28;20517;-72
2022/08/11 06:04:13;;;;;;;3.80;2.33;;;21.80;99.90;;;;;;5015549;28;20507;-73
2022/08/11 06:07:01;;;;;;;3.50;2.80;;;22.20;99.90;;;;;;5015439;28;20449;-73
2022/08/11 06:09:32;;;;;;;3.40;2.50;;;22.90;99.90;;;;;;5014358;28;20501;-72
2022/08/11 06:12:28;;;;;;;3.17;2.80;;;23.50;99.90;;;;;;5013952;28;20475;-73
2022/08/11 06:14:55;;;;;;;3.63;2.53;;;23.90;99.40;;;;;;5013630;28;20541;-73
2022/08/11 06:17:26;;;;;;;2.40;2.20;;;24.40;96.30;;;;;;5015240;28;20846;-72
2022/08/11 06:20:01;;;;;;;3.10;2.63;;;24.70;93.60;;;;;;5015233;28;20465;-72
2022/08/11 06:22:28;;;;;;;2.93;2.50;;;25.10;92.90;;;;;;5015127;28;20407;-72
2022/08/11 06:25:01;;;;;;;2.40;2.20;;;25.40;90.90;;;;;;5014896;28;20388;-72
2022/08/11 06:27:30;;;;;;;3.70;2.90;;;26.00;88.20;;;;;;5014914;28;20990;-72
2022/08/11 06:29:56;;;;;;;2.20;2.00;;;26.60;83.20;;;;;;5014980;28;20395;-72
2022/08/11 06:32:26;;;;;;;3.40;2.77;;;27.00;81.30;;;;;;5014923;28;20473;-72
2022/08/11 06:34:51;;;;;;;4.03;2.80;;;27.50;78.70;;;;;;5014737;28;20413;-73
2022/08/11 06:37:43;;;;;;;3.27;2.57;;;28.10;73.10;;;;;;5014796;28;20407;-73
2022/08/11 06:44:00;;;;;;;3.47;3.00;;;28.90;65.00;;;;;;5013662;28;20418;-73
2022/08/11 06:46:29;;;;;;;3.23;2.90;;;29.40;59.80;;;;;;5013762;28;20454;-72
2022/08/11 06:48:55;;;;;;;3.13;2.83;;;29.90;57.10;;;;;;5014471;28;20413;-73
2022/08/11 06:51:22;;;;;;;3.17;2.77;;;30.10;56.60;;;;;;5014317;28;20451;-73
2022/08/11 06:53:47;;;;;;;3.03;2.73;;;30.40;53.80;;;;;;5014580;28;20816;-73
2022/08/11 07:01:59;;;;;;;2.70;2.37;;;31.20;49.00;;;;;;5014469;28;20499;-73
2022/08/11 07:04:43;;;;;;;3.63;3.33;;;31.40;48.90;;;;;;5012823;28;20419;-72
2022/08/11 07:16:27;;;;;;;5.10;3.00;;;33.20;45.30;;;;;;5013382;28;20445;-73
2022/08/11 07:30:09;;;;;;;2.73;2.53;;;36.20;40.10;;;;;;5013863;28;20403;-73
2022/08/11 07:32:43;;;;;;;3.10;2.90;;;36.70;38.00;;;;;;5013576;28;20485;-73
2022/08/11 07:35:12;;;;;;;2.97;2.77;;;37.00;37.50;;;;;;5013463;28;20422;-73
2022/08/11 07:37:41;;;;;;;3.20;2.90;;;37.40;35.40;;;;;;5013617;28;20434;-73
2022/08/11 07:40:08;;;;;;;3.17;2.87;;;37.20;34.70;;;;;;5012416;28;20471;-73
2022/08/11 07:42:36;;;;;;;3.73;2.73;;;37.50;36.40;;;;;;5013348;28;20427;-73
2022/08/11 07:53:26;;;;;;;3.03;2.73;;;38.90;33.60;;;;;;5013445;28;20485;-71
2022/08/11 07:55:55;;;;;;;2.60;2.40;;;39.60;31.90;;;;;;5012923;28;20378;-71
2022/08/11 08:17:49;;;;;;;3.20;2.90;;;40.00;30.90;;;;;;5012935;28;20369;-71
2022/08/11 08:20:18;;;;;;;3.97;3.00;;;40.30;30.30;;;;;;5012845;28;20374;-71
2022/08/11 08:22:46;;;;;;;2.60;2.40;;;40.30;30.20;;;;;;5012636;28;20396;-71
2022/08/11 08:25:13;;;;;;;3.33;3.13;;;40.50;29.70;;;;;;5012513;28;20544;-71
2022/08/11 08:27:42;;;;;;;3.33;3.03;;;40.20;29.70;;;;;;5012829;28;20758;-71
2022/08/11 08:32:56;;;;;;;3.37;3.07;;;40.10;29.30;;;;;;5012927;28;20405;-73
2022/08/11 08:35:22;;;;;;;3.57;3.37;;;40.30;29.60;;;;;;5012302;28;20408;-71
2022/08/11 08:37:50;;;;;;;3.10;2.90;;;40.50;29.70;;;;;;5012652;28;20898;-71
2022/08/11 08:40:17;;;;;;;7.23;3.13;;;40.50;29.20;;;;;;5012512;28;20390;-72
2022/08/11 08:43:08;;;;;;;3.00;2.80;;;40.40;29.40;;;;;;5012365;28;20485;-71
2022/08/11 08:45:36;;;;;;;3.10;2.80;;;41.40;29.00;;;;;;5012252;28;20407;-72
2022/08/11 08:48:04;;;;;;;3.00;2.80;;;41.80;29.90;;;;;;5012414;28;20385;-72
2022/08/11 08:53:28;;;;;;;2.70;2.50;;;43.50;27.70;;;;;;5012455;28;20431;-72
2022/08/11 08:55:55;;;;;;;4.77;2.87;;;43.90;27.70;;;;;;5011983;28;20388;-71
2022/08/11 08:58:23;;;;;;;3.20;2.73;;;44.30;27.70;;;;;;5012381;28;20407;-71
2022/08/11 09:00:53;;;;;;;3.37;3.10;;;45.00;27.20;;;;;;5012186;28;20923;-71
2022/08/11 09:03:19;;;;;;;3.40;3.10;;;44.80;26.10;;;;;;5011691;28;20811;-72
2022/08/11 09:05:46;;;;;;;4.00;3.17;;;45.00;26.90;;;;;;5010631;28;20393;-72
2022/08/11 09:08:12;;;;;;;2.70;2.50;;;44.90;26.20;;;;;;5012188;28;20911;-72
2022/08/11 09:10:38;;;;;;;3.20;2.90;;;45.50;26.10;;;;;;5011987;28;20410;-71
2022/08/11 09:13:07;;;;;;;3.87;3.13;;;45.90;25.50;;;;;;5012154;28;20892;-71
2022/08/11 09:15:33;;;;;;;4.43;4.03;;;45.80;25.00;;;;;;5011782;28;20179;-72
2022/08/11 09:18:05;;;;;;;3.67;3.03;;;46.10;25.50;;;;;;5010856;28;20776;-72
2022/08/11 09:20:38;;;;;;;2.97;2.77;;;47.00;25.40;;;;;;5012047;28;20911;-71
2022/08/11 09:28:42;;;;;;;3.53;3.23;;;46.40;24.70;;;;;;5014149;28;20419;-72
2022/08/11 09:31:09;;;;;;;3.10;2.90;;;47.00;25.00;;;;;;5022668;28;20434;-71
2022/08/11 09:33:35;;;;;;;3.13;2.93;;;47.00;23.80;;;;;;5020627;28;20922;-71
2022/08/11 09:40:27;;;;;;;4.83;3.10;;;46.40;25.40;;;;;;5021130;28;20426;-71
2022/08/11 09:41:34;;;;;;;3.60;3.30;;;47.00;24.10;;;;;;5021420;28;20480;-71
2022/08/11 09:46:45;;;;;;;3.23;2.97;;;47.90;24.80;;;;;;5020559;28;20436;-71
2022/08/11 09:49:11;;;;;;;3.30;3.00;;;48.50;22.80;;;;;;5028209;28;20787;-72
2022/08/11 09:51:37;;;;;;;3.00;2.80;;;48.20;22.10;;;;;;5031438;28;20446;-71
2022/08/11 09:54:05;;;;;;;3.07;2.87;;;48.30;22.30;;;;;;5030340;28;20179;-72
2022/08/11 09:59:21;;;;;;;2.83;2.63;;;48.00;22.80;;;;;;5031438;28;20420;-72
2022/08/11 10:01:51;;;;;;;3.63;2.87;;;48.40;23.00;;;;;;5031269;28;20440;-72
2022/08/11 10:04:33;;;;;;;3.20;2.80;;;48.10;22.70;;;;;;5031058;28;20489;-72
2022/08/11 10:07:01;;;;;;;6.50;3.40;;;48.20;22.80;;;;;;5031388;28;20421;-72
2022/08/11 10:09:34;;;;;;;2.90;2.70;;;48.90;24.40;;;;;;5031463;28;20402;-72
2022/08/11 10:12:04;;;;;;;2.80;2.60;;;48.90;21.60;;;;;;5031327;28;20428;-72
2022/08/11 10:17:19;;;;;;;3.67;3.30;;;49.60;22.10;;;;;;5035077;28;20829;-72
2022/08/11 10:19:47;;;;;;;3.40;3.10;;;49.60;22.40;;;;;;5034845;28;20445;-72
2022/08/11 10:27:57;;;;;;;5.57;3.33;;;48.90;20.70;;;;;;5034830;28;20440;-71
2022/08/11 10:36:00;;;;;;;4.40;3.90;;;49.30;20.90;;;;;;5034397;28;20393;-71
2022/08/11 10:38:26;;;;;;;2.97;2.80;;;49.20;22.50;;;;;;5034595;28;20434;-72
2022/08/11 10:43:40;;;;;;;3.20;3.00;;;49.70;21.50;;;;;;5034387;28;20996;-71
2022/08/11 10:48:54;;;;;;;5.97;4.80;;;50.80;22.60;;;;;;5034592;28;20444;-71
2022/08/11 10:51:20;;;;;;;3.40;3.20;;;51.70;21.90;;;;;;5034180;28;20877;-72
2022/08/11 10:59:23;;;;;;;3.57;3.37;;;52.80;20.70;;;;;;5034569;28;20448;-72
2022/08/11 11:01:51;;;;;;;4.17;3.90;;;52.60;21.10;;;;;;5034111;28;20955;-71
2022/08/11 11:04:21;;;;;;;3.80;3.60;;;52.60;21.00;;;;;;5033700;28;20966;-71
2022/08/11 11:07:15;;;;;;;3.40;3.20;;;52.70;20.20;;;;;;5033867;28;20437;-71
2022/08/11 11:09:49;;;;;;;7.23;6.70;;;51.80;19.60;;;;;;5033804;28;20418;-71
2022/08/11 11:17:56;;;;;;;3.80;3.60;;;51.40;20.70;;;;;;5033606;28;20400;-71
2022/08/11 11:20:41;;;;;;;4.00;3.70;;;51.90;21.40;;;;;;5033773;28;20402;-71
2022/08/11 11:23:33;;;;;;;3.70;3.50;;;52.60;20.70;;;;;;5032381;28;20453;-72
2022/08/11 11:26:39;;;;;;;3.90;3.60;;;53.20;20.10;;;;;;5032939;28;20409;-71
2022/08/11 11:29:38;;;;;;;4.30;4.10;;;53.00;20.10;;;;;;5033641;28;20394;-72
2022/08/11 11:32:34;;;;;;;4.20;4.00;;;53.30;20.70;;;;;;5033469;28;20949;-72
2022/08/11 11:35:03;;;;;;;4.30;4.03;;;54.00;20.40;;;;;;5032017;28;20782;-71
2022/08/11 11:37:34;;;;;;;4.30;4.10;;;54.00;20.40;;;;;;5033492;28;20409;-71
2022/08/11 11:40:01;;;;;;;3.93;3.73;;;53.40;19.90;;;;;;5033398;28;20410;-71
2022/08/11 11:42:28;;;;;;;4.03;3.83;;;53.40;18.80;;;;;;5033247;28;20436;-71
2022/08/11 11:44:54;;;;;;;4.20;4.00;;;53.10;19.50;;;;;;5032910;28;20445;-71
2022/08/11 11:47:21;;;;;;;4.00;3.80;;;52.80;19.60;;;;;;5033311;28;20405;-71
2022/08/11 11:49:48;;;;;;;3.73;3.53;;;52.50;19.40;;;;;;5033274;28;20251;-71
2022/08/11 11:52:19;;;;;;;3.80;3.60;;;51.40;19.40;;;;;;5032965;28;20450;-71
2022/08/11 11:54:49;;;;;;;3.87;3.63;;;51.30;21.10;;;;;;5032884;28;20473;-71
2022/08/11 12:02:50;;;;;;;4.20;3.90;;;53.40;20.00;;;;;;5032829;28;20467;-71
2022/08/11 12:05:16;;;;;;;4.70;4.50;;;54.00;19.80;;;;;;5032580;28;20552;-71
2022/08/11 12:10:27;;;;;;;3.43;3.33;;;53.30;19.70;;;;;;5032988;28;20492;-71
2022/08/11 12:15:55;;;;;;;4.50;4.20;;;53.20;20.10;;;;;;5010378;28;20441;-71
2022/08/11 12:18:21;;;;;;;4.07;3.87;;;53.30;20.00;;;;;;5028027;28;20488;-71
2022/08/11 12:20:47;;;;;;;4.33;4.10;;;54.40;19.20;;;;;;5032505;28;20417;-71
2022/08/11 12:28:57;;;;;;;5.57;5.27;;;55.30;19.20;;;;;;5032570;28;20396;-71
2022/08/11 12:31:24;;;;;;;4.80;4.60;;;55.60;19.40;;;;;;5032472;28;20446;-71
2022/08/11 12:33:50;;;;;;;4.97;4.67;;;55.70;19.50;;;;;;5032109;28;20402;-71
2022/08/11 12:36:18;;;;;;;5.70;5.40;;;55.60;19.00;;;;;;5031821;28;20716;-72
2022/08/11 12:38:46;;;;;;;5.00;4.80;;;55.70;18.20;;;;;;5031406;28;20563;-72
2022/08/11 12:46:46;;;;;;;4.30;4.00;;;53.70;19.60;;;;;;5032293;28;20971;-71
2022/08/11 12:52:08;;;;;;;3.77;3.57;;;52.90;18.70;;;;;;5032011;28;20859;-71
2022/08/11 12:54:56;;;;;;;3.80;3.60;;;52.80;20.00;;;;;;5031839;28;20484;-72
2022/08/11 13:05:59;;;;;;;3.70;3.50;;;52.50;20.30;;;;;;5012235;28;20441;-71
2022/08/11 13:08:28;;;;;;;3.60;3.40;;;52.90;20.10;;;;;;5012204;28;20407;-72
2022/08/11 13:13:42;;;;;;;3.70;3.50;;;52.10;19.50;;;;;;5012184;28;20402;-72
2022/08/11 13:16:09;;;;;;;3.70;3.50;;;51.60;19.50;;;;;;5011872;28;20545;-72
2022/08/11 13:18:36;;;;;;;16.47;3.63;;;51.50;19.80;;;;;;5012123;28;20920;-72
2022/08/11 13:21:02;;;;;;;3.50;3.30;;;51.50;19.80;;;;;;5012083;28;20435;-71
2022/08/11 13:23:29;;;;;;;3.80;3.40;;;51.70;20.00;;;;;;5012512;28;20835;-71
2022/08/11 13:25:55;;;;;;;3.87;3.67;;;51.20;20.30;;;;;;5010713;28;20472;-72
2022/08/11 13:28:22;;;;;;;3.77;3.57;;;51.30;19.70;;;;;;5012224;28;20417;-73
2022/08/11 13:33:43;;;;;;;3.93;3.53;;;51.80;20.30;;;;;;5012085;28;20428;-72
2022/08/11 13:36:10;;;;;;;3.50;3.30;;;51.60;19.50;;;;;;5012017;28;20407;-71
2022/08/11 13:38:40;;;;;;;3.13;2.93;;;50.90;18.80;;;;;;5012057;28;20406;-71
2022/08/11 13:41:36;;;;;;;3.63;3.23;;;50.50;19.90;;;;;;5012107;28;20426;-72
2022/08/11 13:43:53;;;;;;;3.57;3.27;;;50.00;20.00;;;;;;5011798;28;20490;-71
2022/08/11 13:46:19;;;;;;;3.50;3.03;;;49.50;20.80;;;;;;5011748;28;20399;-72
2022/08/11 13:48:45;;;;;;;3.67;3.37;;;49.40;20.60;;;;;;5012942;28;20486;-72
2022/08/11 13:51:32;;;;;;;3.67;3.37;;;49.40;20.30;;;;;;5015618;28;20990;-72
2022/08/11 13:53:59;;;;;;;3.37;3.17;;;48.60;19.70;;;;;;5015684;28;20176;-72
2022/08/11 13:56:26;;;;;;;3.00;2.80;;;47.70;21.20;;;;;;5015565;28;20530;-72
2022/08/11 13:58:54;;;;;;;3.30;2.97;;;47.50;20.60;;;;;;5015671;28;21106;-72
2022/08/11 14:01:20;;;;;;;3.37;3.17;;;47.00;21.50;;;;;;5015618;28;20844;-72
2022/08/11 14:03:48;;;;;;;3.20;3.00;;;47.00;20.70;;;;;;5015526;28;20451;-72
2022/08/11 14:06:16;;;;;;;2.90;2.70;;;46.00;22.20;;;;;;5015238;28;20383;-72
2022/08/11 14:08:42;;;;;;;3.10;2.90;;;45.80;22.50;;;;;;5015535;28;20377;-71
2022/08/11 14:13:53;;;;;;;2.90;2.70;;;44.90;21.30;;;;;;5015291;28;20907;-72
2022/08/11 14:16:27;;;;;;;2.80;2.60;;;43.90;22.90;;;;;;5015012;28;20389;-72
2022/08/11 14:18:56;;;;;;;3.40;3.20;;;42.80;23.40;;;;;;5015327;28;20421;-71
2022/08/11 14:24:10;;;;;;;3.20;3.00;;;41.00;23.90;;;;;;5014986;28;20857;-72
2022/08/11 14:26:37;;;;;;;2.83;2.63;;;39.70;24.10;;;;;;5014863;28;20449;-70
2022/08/11 14:29:13;;;;;;;3.30;2.60;;;38.80;25.40;;;;;;5015005;28;20374;-72
2022/08/11 14:32:00;;;;;;;3.47;3.17;;;37.90;25.70;;;;;;5014974;28;20505;-72
2022/08/11 14:34:29;;;;;;;3.27;2.90;;;37.00;28.30;;;;;;5014778;28;20767;-71
2022/08/11 14:37:00;;;;;;;2.73;2.53;;;36.60;27.70;;;;;;5014865;28;20386;-71
2022/08/11 14:39:30;;;;;;;3.03;2.83;;;36.10;27.50;;;;;;5015021;28;20407;-71
2022/08/11 14:47:37;;;;;;;3.43;3.13;;;35.00;28.90;;;;;;5014888;28;20407;-72
2022/08/11 14:50:05;;;;;;;3.20;2.90;;;34.70;29.80;;;;;;5014510;28;20773;-72
2022/08/11 14:52:35;;;;;;;2.80;2.60;;;34.40;29.20;;;;;;5014402;28;20451;-71
2022/08/11 14:57:47;;;;;;;3.40;3.10;;;34.30;28.30;;;;;;5014640;28;20911;-70
2022/08/11 15:00:14;;;;;;;3.00;2.80;;;34.20;29.80;;;;;;5013709;28;20417;-70
2022/08/11 15:05:26;;;;;;;3.27;2.97;;;33.90;29.10;;;;;;5014055;28;20438;-70
2022/08/11 15:07:53;;;;;;;2.83;2.63;;;33.80;29.60;;;;;;5014167;28;20760;-71
2022/08/11 15:10:20;;;;;;;3.53;3.23;;;33.70;30.00;;;;;;5014015;28;20777;-71
2022/08/11 15:12:46;;;;;;;3.27;2.97;;;33.50;30.30;;;;;;5014184;28;20439;-71
2022/08/11 15:18:00;;;;;;;3.00;2.80;;;33.40;30.00;;;;;;5014465;28;20394;-71
2022/08/11 15:37:36;;;;;;;3.37;3.10;;;32.70;32.60;;;;;;5013409;28;20402;-71
2022/08/11 15:46:16;;;;;;;2.97;2.77;;;32.50;30.90;;;;;;5013133;28;20399;-72
2022/08/11 15:48:47;;;;;;;3.70;2.67;;;32.40;32.10;;;;;;5013481;28;20767;-72
2022/08/11 15:51:21;;;;;;;2.53;2.33;;;32.20;32.70;;;;;;5013170;28;20435;-71
2022/08/11 15:53:56;;;;;;;5.00;2.80;;;32.20;32.40;;;;;;5013530;28;20407;-72
2022/08/11 15:56:27;;;;;;;2.90;2.70;;;32.00;31.90;;;;;;5013313;28;20756;-71
2022/08/11 16:04:29;;;;;;;3.30;3.00;;;31.90;32.20;;;;;;5012917;28;20983;-72
2022/08/11 16:07:13;;;;;;;2.97;2.70;;;32.00;30.70;;;;;;5013057;28;20403;-72
2022/08/11 16:09:48;;;;;;;2.83;2.63;;;31.70;32.90;;;;;;5013020;28;20422;-71
2022/08/11 16:16:12;;;;;;;3.37;3.10;;;31.80;31.00;;;;;;5011914;28;20474;-72
2022/08/11 16:18:15;;;;;;;4.50;3.10;;;31.70;31.80;;;;;;5013007;28;20912;-72
2022/08/11 16:20:43;;;;;;;3.30;3.00;;;31.70;31.70;;;;;;5012670;28;20490;-72
2022/08/11 16:23:10;;;;;;;2.97;2.70;;;31.70;31.40;;;;;;5012400;28;20447;-72
2022/08/11 16:25:36;;;;;;;3.30;2.87;;;31.50;33.50;;;;;;5012651;28;20506;-72
2022/08/11 16:28:04;;;;;;;3.23;2.93;;;31.40;32.60;;;;;;5013033;28;20602;-72
2022/08/11 16:30:32;;;;;;;2.87;2.57;;;31.20;34.10;;;;;;5012668;28;20173;-73
2022/08/11 16:33:00;;;;;;;3.67;3.30;;;31.20;33.60;;;;;;5012773;28;20427;-72
2022/08/11 16:40:59;;;;;;;4.20;2.93;;;31.40;33.20;;;;;;5012482;28;20430;-71
2022/08/11 16:48:46;;;;;;;3.33;3.03;;;31.10;33.10;;;;;;5012586;28;20521;-70
2022/08/11 16:51:12;;;;;;;4.43;3.53;;;31.20;32.90;;;;;;5012160;28;20896;-73
2022/08/11 16:53:39;;;;;;;3.20;2.90;;;31.20;32.30;;;;;;5012309;28;20446;-72
2022/08/11 16:56:07;;;;;;;2.70;2.50;;;31.10;33.50;;;;;;5012140;28;20775;-72
2022/08/11 17:01:23;;;;;;;4.00;3.60;;;31.20;32.50;;;;;;5012466;28;20444;-71
2022/08/11 17:16:05;;;;;;;2.60;2.40;;;31.00;32.70;;;;;;5011876;28;20923;-72
2022/08/11 17:17:59;;;;;;;2.97;2.67;;;31.00;33.50;;;;;;5011744;28;20447;-72
2022/08/11 17:20:27;;;;;;;3.10;2.90;;;31.00;33.50;;;;;;5011841;28;20412;-74
2022/08/11 17:25:41;;;;;;;2.77;2.57;;;30.70;34.60;;;;;;5016093;28;20402;-71
2022/08/11 17:28:08;;;;;;;3.13;2.93;;;30.60;34.50;;;;;;5016167;28;20880;-71
2022/08/11 17:36:06;;;;;;;3.13;2.93;;;30.50;34.30;;;;;;5015920;28;20410;-73
2022/08/11 17:38:32;;;;;;;3.27;2.97;;;30.40;34.80;;;;;;5015745;28;20418;-71
2022/08/11 17:49:19;;;;;;;4.17;3.40;;;30.10;34.90;;;;;;5015729;28;21028;-72
2022/08/11 18:00:05;;;;;;;3.63;2.57;;;29.70;36.10;;;;;;5015670;28;20405;-73
2022/08/11 18:05:28;;;;;;;4.47;3.23;;;29.60;36.20;;;;;;5015159;28;20405;-72
